sensor_id;sensor_type;location;lat;lon;timestamp;pressure;altitude;pressure_sealevel;temperature;humidity
53916;BME280;39827;49.652;18.770;2023-04-21T00:01:02;74705.66;;;-149.71;80.07
53916;BME280;39827;49.652;18.770;2023-04-21T00:03:28;74701.63;;;-149.71;79.98
53916;BME280;39827;49.652;18.770;2023-04-21T00:05:57;74677.53;;;-149.71;79.42
53916;BME280;39827;49.652;18.770;2023-04-21T00:08:23;74683.56;;;-149.71;79.87
53916;BME280;39827;49.652;18.770;2023-04-21T00:10:49;74679.53;;;-149.71;79.71
53916;BME280;39827;49.652;18.770;2023-04-21T00:13:14;74675.50;;;-149.71;79.16
53916;BME280;39827;49.652;18.770;2023-04-21T00:15:40;74671.50;;;-149.71;78.84
53916;BME280;39827;49.652;18.770;2023-04-21T00:18:05;74685.56;;;-149.71;79.07
53916;BME280;39827;49.652;18.770;2023-04-21T00:20:31;74691.59;;;-149.71;79.16
53916;BME280;39827;49.652;18.770;2023-04-21T00:22:57;74685.56;;;-149.71;79.72
53916;BME280;39827;49.652;18.770;2023-04-21T00:25:23;74693.59;;;-149.71;79.63
53916;BME280;39827;49.652;18.770;2023-04-21T00:27:49;74699.63;;;-149.71;79.37
53916;BME280;39827;49.652;18.770;2023-04-21T00:30:14;74709.66;;;-149.71;79.97
53916;BME280;39827;49.652;18.770;2023-04-21T00:32:40;74707.66;;;-149.71;79.83
53916;BME280;39827;49.652;18.770;2023-04-21T00:35:06;74713.69;;;-149.71;79.99
53916;BME280;39827;49.652;18.770;2023-04-21T00:37:31;74729.75;;;-149.71;80.48
53916;BME280;39827;49.652;18.770;2023-04-21T00:39:57;74723.75;;;-149.71;80.52
53916;BME280;39827;49.652;18.770;2023-04-21T00:42:23;74715.69;;;-149.71;80.60
53916;BME280;39827;49.652;18.770;2023-04-21T00:44:49;74715.69;;;-149.71;81.01
53916;BME280;39827;49.652;18.770;2023-04-21T00:47:14;74707.66;;;-149.71;80.59
53916;BME280;39827;49.652;18.770;2023-04-21T00:49:40;74701.63;;;-149.71;80.94
53916;BME280;39827;49.652;18.770;2023-04-21T00:52:06;74713.69;;;-149.71;81.11
53916;BME280;39827;49.652;18.770;2023-04-21T00:54:34;74699.63;;;-149.71;81.26
53916;BME280;39827;49.652;18.770;2023-04-21T00:57:00;74715.69;;;-149.71;81.17
53916;BME280;39827;49.652;18.770;2023-04-21T00:59:26;74719.72;;;-149.71;81.18
53916;BME280;39827;49.652;18.770;2023-04-21T01:01:52;74725.75;;;-149.71;81.41
53916;BME280;39827;49.652;18.770;2023-04-21T01:04:17;74715.69;;;-149.71;81.23
53916;BME280;39827;49.652;18.770;2023-04-21T01:06:42;74707.66;;;-149.71;81.19
53916;BME280;39827;49.652;18.770;2023-04-21T01:09:08;74719.72;;;-149.71;81.41
53916;BME280;39827;49.652;18.770;2023-04-21T01:11:33;74733.78;;;-149.71;81.32
53916;BME280;39827;49.652;18.770;2023-04-21T01:13:59;74715.69;;;-149.71;81.45
53916;BME280;39827;49.652;18.770;2023-04-21T01:16:25;74713.69;;;-149.71;81.45
53916;BME280;39827;49.652;18.770;2023-04-21T01:18:51;74717.72;;;-149.71;80.94
53916;BME280;39827;49.652;18.770;2023-04-21T01:21:18;74717.72;;;-149.71;81.08
53916;BME280;39827;49.652;18.770;2023-04-21T01:23:43;74729.75;;;-149.71;80.67
53916;BME280;39827;49.652;18.770;2023-04-21T01:26:09;74723.75;;;-149.71;81.01
53916;BME280;39827;49.652;18.770;2023-04-21T01:28:35;74739.81;;;-149.71;80.89
53916;BME280;39827;49.652;18.770;2023-04-21T01:31:01;74745.84;;;-149.71;81.53
53916;BME280;39827;49.652;18.770;2023-04-21T01:33:27;74741.81;;;-149.71;81.84
53916;BME280;39827;49.652;18.770;2023-04-21T01:35:53;74729.75;;;-149.71;81.62
53916;BME280;39827;49.652;18.770;2023-04-21T01:38:19;74747.84;;;-149.71;81.64
53916;BME280;39827;49.652;18.770;2023-04-21T01:40:47;74741.81;;;-149.71;81.60
53916;BME280;39827;49.652;18.770;2023-04-21T01:43:14;74737.81;;;-149.71;81.61
53916;BME280;39827;49.652;18.770;2023-04-21T01:45:40;74739.81;;;-149.71;80.68
53916;BME280;39827;49.652;18.770;2023-04-21T01:48:06;74737.81;;;-149.71;79.96
53916;BME280;39827;49.652;18.770;2023-04-21T01:50:31;74741.81;;;-149.71;79.89
53916;BME280;39827;49.652;18.770;2023-04-21T01:52:57;74751.88;;;-149.71;79.71
53916;BME280;39827;49.652;18.770;2023-04-21T01:55:22;74755.88;;;-149.71;79.77
53916;BME280;39827;49.652;18.770;2023-04-21T01:57:48;74763.94;;;-149.71;80.52
53916;BME280;39827;49.652;18.770;2023-04-21T02:00:13;74753.88;;;-149.71;81.25
53916;BME280;39827;49.652;18.770;2023-04-21T02:02:39;74753.88;;;-149.71;81.39
53916;BME280;39827;49.652;18.770;2023-04-21T02:05:04;74771.97;;;-149.71;81.53
53916;BME280;39827;49.652;18.770;2023-04-21T02:07:30;74755.88;;;-149.71;81.01
53916;BME280;39827;49.652;18.770;2023-04-21T02:09:55;74761.91;;;-149.71;80.32
53916;BME280;39827;49.652;18.770;2023-04-21T02:12:21;74761.91;;;-149.71;80.02
53916;BME280;39827;49.652;18.770;2023-04-21T02:14:46;74759.91;;;-149.71;80.85
53916;BME280;39827;49.652;18.770;2023-04-21T02:17:12;74753.88;;;-149.71;80.60
53916;BME280;39827;49.652;18.770;2023-04-21T02:19:38;74743.84;;;-149.71;80.44
53916;BME280;39827;49.652;18.770;2023-04-21T02:22:04;74757.91;;;-149.71;81.02
53916;BME280;39827;49.652;18.770;2023-04-21T02:24:31;74761.91;;;-149.71;80.48
53916;BME280;39827;49.652;18.770;2023-04-21T02:26:56;74767.94;;;-149.71;80.51
53916;BME280;39827;49.652;18.770;2023-04-21T02:29:22;74757.91;;;-149.71;79.76
53916;BME280;39827;49.652;18.770;2023-04-21T02:31:48;74739.81;;;-149.71;80.23
53916;BME280;39827;49.652;18.770;2023-04-21T02:34:13;74745.84;;;-149.71;80.10
53916;BME280;39827;49.652;18.770;2023-04-21T02:36:39;74753.88;;;-149.71;79.72
53916;BME280;39827;49.652;18.770;2023-04-21T02:39:04;74749.84;;;-149.71;79.42
53916;BME280;39827;49.652;18.770;2023-04-21T02:41:30;74747.84;;;-149.71;79.27
53916;BME280;39827;49.652;18.770;2023-04-21T02:43:55;74751.88;;;-149.71;79.51
53916;BME280;39827;49.652;18.770;2023-04-21T02:46:20;74757.91;;;-149.71;79.15
53916;BME280;39827;49.652;18.770;2023-04-21T02:48:46;74784.03;;;-149.71;80.15
53916;BME280;39827;49.652;18.770;2023-04-21T02:51:12;74782.00;;;-149.71;80.56
53916;BME280;39827;49.652;18.770;2023-04-21T02:53:39;74786.03;;;-149.71;80.37
53916;BME280;39827;49.652;18.770;2023-04-21T02:56:06;74769.94;;;-149.71;80.39
53916;BME280;39827;49.652;18.770;2023-04-21T02:58:36;74782.00;;;-149.71;80.25
53916;BME280;39827;49.652;18.770;2023-04-21T03:01:02;74796.06;;;-149.71;81.35
53916;BME280;39827;49.652;18.770;2023-04-21T03:03:29;74784.03;;;-149.71;80.65
53916;BME280;39827;49.652;18.770;2023-04-21T03:06:02;74784.03;;;-149.71;80.88
53916;BME280;39827;49.652;18.770;2023-04-21T03:08:28;74798.09;;;-149.71;80.96
53916;BME280;39827;49.652;18.770;2023-04-21T03:10:54;74778.00;;;-149.71;80.61
53916;BME280;39827;49.652;18.770;2023-04-21T03:13:20;74782.00;;;-149.71;80.14
53916;BME280;39827;49.652;18.770;2023-04-21T03:15:45;74763.94;;;-149.71;79.71
53916;BME280;39827;49.652;18.770;2023-04-21T03:18:11;74761.91;;;-149.71;79.78
53916;BME280;39827;49.652;18.770;2023-04-21T03:20:37;74782.00;;;-149.71;79.65
53916;BME280;39827;49.652;18.770;2023-04-21T03:23:02;74782.00;;;-149.71;79.49
53916;BME280;39827;49.652;18.770;2023-04-21T03:25:28;74780.00;;;-149.71;79.41
53916;BME280;39827;49.652;18.770;2023-04-21T03:27:54;74792.06;;;-149.71;79.31
53916;BME280;39827;49.652;18.770;2023-04-21T03:30:20;74818.19;;;-149.71;79.25
53916;BME280;39827;49.652;18.770;2023-04-21T03:32:45;74818.19;;;-149.71;79.70
53916;BME280;39827;49.652;18.770;2023-04-21T03:35:11;74798.09;;;-149.71;79.47
53916;BME280;39827;49.652;18.770;2023-04-21T03:37:36;74794.06;;;-149.71;79.67
53916;BME280;39827;49.652;18.770;2023-04-21T03:40:02;74790.03;;;-149.71;79.74
53916;BME280;39827;49.652;18.770;2023-04-21T03:42:30;74800.09;;;-149.71;79.35
53916;BME280;39827;49.652;18.770;2023-04-21T03:44:55;74824.22;;;-149.71;79.90
53916;BME280;39827;49.652;18.770;2023-04-21T03:47:21;74824.22;;;-149.71;80.46
53916;BME280;39827;49.652;18.770;2023-04-21T03:49:46;74828.22;;;-149.71;80.77
53916;BME280;39827;49.652;18.770;2023-04-21T03:52:12;74822.19;;;-149.71;80.99
53916;BME280;39827;49.652;18.770;2023-04-21T03:54:37;74814.16;;;-149.71;81.05
53916;BME280;39827;49.652;18.770;2023-04-21T03:57:02;74824.22;;;-149.71;80.72
53916;BME280;39827;49.652;18.770;2023-04-21T03:59:28;74836.25;;;-149.71;80.90
53916;BME280;39827;49.652;18.770;2023-04-21T04:01:53;74832.25;;;-149.71;81.13
53916;BME280;39827;49.652;18.770;2023-04-21T04:04:18;74830.22;;;-149.71;80.81
53916;BME280;39827;49.652;18.770;2023-04-21T04:06:44;74812.16;;;-149.71;80.63
53916;BME280;39827;49.652;18.770;2023-04-21T04:09:09;74792.06;;;-149.71;79.67
53916;BME280;39827;49.652;18.770;2023-04-21T04:11:35;74786.03;;;-149.71;79.45
53916;BME280;39827;49.652;18.770;2023-04-21T04:14:00;74778.00;;;-149.71;79.37
53916;BME280;39827;49.652;18.770;2023-04-21T04:16:26;74775.97;;;-149.71;79.07
53916;BME280;39827;49.652;18.770;2023-04-21T04:18:53;74782.00;;;-149.71;79.14
53916;BME280;39827;49.652;18.770;2023-04-21T04:21:18;74771.97;;;-149.71;79.04
53916;BME280;39827;49.652;18.770;2023-04-21T04:23:44;74763.94;;;-149.71;78.41
53916;BME280;39827;49.652;18.770;2023-04-21T04:26:09;74737.81;;;-149.71;77.98
53916;BME280;39827;49.652;18.770;2023-04-21T04:28:35;74737.81;;;-149.71;77.57
53916;BME280;39827;49.652;18.770;2023-04-21T04:31:01;74735.78;;;-149.71;77.81
53916;BME280;39827;49.652;18.770;2023-04-21T04:33:27;74733.78;;;-149.71;77.69
53916;BME280;39827;49.652;18.770;2023-04-21T04:35:53;74729.75;;;-149.71;77.70
53916;BME280;39827;49.652;18.770;2023-04-21T04:38:18;74729.75;;;-149.71;77.34
53916;BME280;39827;49.652;18.770;2023-04-21T04:40:44;74731.78;;;-149.71;77.46
53916;BME280;39827;49.652;18.770;2023-04-21T04:43:09;74729.75;;;-149.71;77.75
53916;BME280;39827;49.652;18.770;2023-04-21T04:45:35;74713.69;;;-149.71;77.52
53916;BME280;39827;49.652;18.770;2023-04-21T04:48:02;74707.66;;;-149.71;77.12
53916;BME280;39827;49.652;18.770;2023-04-21T04:50:28;74721.72;;;-149.71;77.57
53916;BME280;39827;49.652;18.770;2023-04-21T04:52:53;74699.63;;;-149.71;77.05
53916;BME280;39827;49.652;18.770;2023-04-21T04:55:19;74683.56;;;-149.71;76.75
53916;BME280;39827;49.652;18.770;2023-04-21T04:57:45;74681.53;;;-149.71;76.69
53916;BME280;39827;49.652;18.770;2023-04-21T05:00:11;74679.53;;;-149.71;76.77
53916;BME280;39827;49.652;18.770;2023-04-21T05:02:39;74661.44;;;-149.71;76.49
53916;BME280;39827;49.652;18.770;2023-04-21T05:05:05;74661.44;;;-149.71;76.35
53916;BME280;39827;49.652;18.770;2023-04-21T05:07:32;74645.38;;;-149.71;76.31
53916;BME280;39827;49.652;18.770;2023-04-21T05:09:58;74623.28;;;-149.71;75.79
53916;BME280;39827;49.652;18.770;2023-04-21T05:12:23;74613.22;;;-149.71;75.77
53916;BME280;39827;49.652;18.770;2023-04-21T05:14:48;74593.13;;;-149.71;75.21
53916;BME280;39827;49.652;18.770;2023-04-21T05:17:14;74569.03;;;-149.71;73.97
53916;BME280;39827;49.652;18.770;2023-04-21T05:19:39;74528.84;;;-149.71;72.51
53916;BME280;39827;49.652;18.770;2023-04-21T05:22:05;74520.78;;;-149.71;72.58
53916;BME280;39827;49.652;18.770;2023-04-21T05:24:32;74510.75;;;-149.71;72.83
53916;BME280;39827;49.652;18.770;2023-04-21T05:26:57;74508.75;;;-149.71;72.34
53916;BME280;39827;49.652;18.770;2023-04-21T05:29:22;74512.75;;;-149.71;72.48
53916;BME280;39827;49.652;18.770;2023-04-21T05:31:48;74470.56;;;-149.71;71.22
53916;BME280;39827;49.652;18.770;2023-04-21T05:34:13;74418.31;;;-149.71;69.47
53916;BME280;39827;49.652;18.770;2023-04-21T05:36:42;74360.06;;;-149.71;67.45
53916;BME280;39827;49.652;18.770;2023-04-21T05:39:08;74289.75;;;-149.71;67.09
53916;BME280;39827;49.652;18.770;2023-04-21T05:41:33;74205.34;;;-149.71;63.16
53916;BME280;39827;49.652;18.770;2023-04-21T05:43:59;74118.97;;;-149.71;61.56
53916;BME280;39827;49.652;18.770;2023-04-21T05:46:24;74084.81;;;-149.71;58.93
53916;BME280;39827;49.652;18.770;2023-04-21T05:48:50;74034.59;;;-149.71;62.34
53916;BME280;39827;49.652;18.770;2023-04-21T05:51:15;73956.22;;;-149.71;60.74
53916;BME280;39827;49.652;18.770;2023-04-21T05:53:42;73906.00;;;-149.71;57.34
53916;BME280;39827;49.652;18.770;2023-04-21T05:56:08;73875.88;;;-149.71;55.40
53916;BME280;39827;49.652;18.770;2023-04-21T05:58:34;73879.88;;;-149.71;53.39
53916;BME280;39827;49.652;18.770;2023-04-21T06:01:00;73845.75;;;-149.71;52.68
53916;BME280;39827;49.652;18.770;2023-04-21T06:03:25;73819.63;;;-149.71;52.19
53916;BME280;39827;49.652;18.770;2023-04-21T06:05:54;73771.41;;;-149.71;49.94
53916;BME280;39827;49.652;18.770;2023-04-21T06:08:20;73721.19;;;-149.71;49.42
53916;BME280;39827;49.652;18.770;2023-04-21T06:10:46;73719.19;;;-149.71;49.38
53916;BME280;39827;49.652;18.770;2023-04-21T06:13:11;73640.84;;;-149.71;47.93
53916;BME280;39827;49.652;18.770;2023-04-21T06:15:36;73606.69;;;-149.71;46.94
53916;BME280;39827;49.652;18.770;2023-04-21T06:18:02;73566.50;;;-149.71;47.35
53916;BME280;39827;49.652;18.770;2023-04-21T06:20:27;73552.44;;;-149.71;46.92
53916;BME280;39827;49.652;18.770;2023-04-21T06:22:53;73482.13;;;-149.71;44.25
53916;BME280;39827;49.652;18.770;2023-04-21T06:25:18;73448.00;;;-149.71;43.63
53916;BME280;39827;49.652;18.770;2023-04-21T06:27:44;73443.97;;;-149.71;43.46
53916;BME280;39827;49.652;18.770;2023-04-21T06:30:10;73399.78;;;-149.71;42.38
53916;BME280;39827;49.652;18.770;2023-04-21T06:32:35;73357.59;;;-149.71;42.85
53916;BME280;39827;49.652;18.770;2023-04-21T06:35:01;73365.63;;;-149.71;42.38
53916;BME280;39827;49.652;18.770;2023-04-21T06:37:26;73355.59;;;-149.71;42.21
53916;BME280;39827;49.652;18.770;2023-04-21T06:39:52;73331.50;;;-149.71;41.45
53916;BME280;39827;49.652;18.770;2023-04-21T06:42:17;73301.34;;;-149.71;41.42
53916;BME280;39827;49.652;18.770;2023-04-21T06:44:43;73247.13;;;-149.71;40.20
53916;BME280;39827;49.652;18.770;2023-04-21T06:47:08;73198.91;;;-149.71;40.46
53916;BME280;39827;49.652;18.770;2023-04-21T06:49:33;73198.91;;;-149.71;40.05
53916;BME280;39827;49.652;18.770;2023-04-21T06:52:01;73162.75;;;-149.71;38.90
53916;BME280;39827;49.652;18.770;2023-04-21T06:54:26;73110.53;;;-149.71;37.62
53916;BME280;39827;49.652;18.770;2023-04-21T06:56:52;73098.50;;;-149.71;38.47
53916;BME280;39827;49.652;18.770;2023-04-21T06:59:17;73076.38;;;-149.71;38.57
53916;BME280;39827;49.652;18.770;2023-04-21T07:01:42;73048.28;;;-149.71;38.29
53916;BME280;39827;49.652;18.770;2023-04-21T07:04:08;73030.19;;;-149.71;37.81
53916;BME280;39827;49.652;18.770;2023-04-21T07:06:33;73038.22;;;-149.71;37.64
53916;BME280;39827;49.652;18.770;2023-04-21T07:08:58;73036.22;;;-149.71;37.18
53916;BME280;39827;49.652;18.770;2023-04-21T07:11:24;73010.13;;;-149.71;37.19
53916;BME280;39827;49.652;18.770;2023-04-21T07:13:49;72982.00;;;-149.71;37.03
53916;BME280;39827;49.652;18.770;2023-04-21T07:16:15;72949.84;;;-149.71;36.40
53916;BME280;39827;49.652;18.770;2023-04-21T07:18:40;72935.78;;;-149.71;36.54
53916;BME280;39827;49.652;18.770;2023-04-21T07:21:06;72925.75;;;-149.71;36.56
53916;BME280;39827;49.652;18.770;2023-04-21T07:23:31;72897.63;;;-149.71;36.16
53916;BME280;39827;49.652;18.770;2023-04-21T07:25:58;72917.72;;;-149.71;36.02
53916;BME280;39827;49.652;18.770;2023-04-21T07:28:23;72877.56;;;-149.71;36.03
53916;BME280;39827;49.652;18.770;2023-04-21T07:30:49;72893.63;;;-149.71;35.86
53916;BME280;39827;49.652;18.770;2023-04-21T07:33:14;72857.47;;;-149.71;34.67
53916;BME280;39827;49.652;18.770;2023-04-21T07:35:40;72819.31;;;-149.71;34.86
53916;BME280;39827;49.652;18.770;2023-04-21T07:38:05;72803.25;;;-149.71;34.11
53916;BME280;39827;49.652;18.770;2023-04-21T07:40:31;72761.06;;;-149.71;33.34
53916;BME280;39827;49.652;18.770;2023-04-21T07:42:56;72767.09;;;-149.71;33.63
53916;BME280;39827;49.652;18.770;2023-04-21T07:45:21;72775.13;;;-149.71;34.51
53916;BME280;39827;49.652;18.770;2023-04-21T07:47:47;72781.16;;;-149.71;33.60
53916;BME280;39827;49.652;18.770;2023-04-21T07:50:12;72793.19;;;-149.71;33.25
53916;BME280;39827;49.652;18.770;2023-04-21T07:52:37;72765.09;;;-149.71;34.11
53916;BME280;39827;49.652;18.770;2023-04-21T07:55:03;72893.63;;;-149.71;34.77
53916;BME280;39827;49.652;18.770;2023-04-21T07:57:29;72849.44;;;-149.71;34.83
53916;BME280;39827;49.652;18.770;2023-04-21T07:59:57;72817.31;;;-149.71;34.30
53916;BME280;39827;49.652;18.770;2023-04-21T08:02:23;72779.13;;;-149.71;34.13
53916;BME280;39827;49.652;18.770;2023-04-21T08:04:48;72825.34;;;-149.71;33.57
53916;BME280;39827;49.652;18.770;2023-04-21T08:07:14;72899.66;;;-149.71;32.06
53916;BME280;39827;49.652;18.770;2023-04-21T08:09:39;72913.69;;;-149.71;35.42
53916;BME280;39827;49.652;18.770;2023-04-21T08:12:05;72857.47;;;-149.71;33.50
53916;BME280;39827;49.652;18.770;2023-04-21T08:14:33;72791.19;;;-149.71;33.50
53916;BME280;39827;49.652;18.770;2023-04-21T08:16:58;72865.50;;;-149.71;33.03
53916;BME280;39827;49.652;18.770;2023-04-21T08:19:24;72837.38;;;-149.71;32.24
53916;BME280;39827;49.652;18.770;2023-04-21T08:21:50;72736.97;;;-149.71;29.47
53916;BME280;39827;49.652;18.770;2023-04-21T08:24:15;72736.97;;;-149.71;32.03
53916;BME280;39827;49.652;18.770;2023-04-21T08:26:40;72801.22;;;-149.71;28.82
53916;BME280;39827;49.652;18.770;2023-04-21T08:29:06;72803.25;;;-149.71;27.83
53916;BME280;39827;49.652;18.770;2023-04-21T08:31:34;72805.25;;;-149.71;27.65
53916;BME280;39827;49.652;18.770;2023-04-21T08:33:59;72837.38;;;-149.71;27.95
53916;BME280;39827;49.652;18.770;2023-04-21T08:36:26;72853.44;;;-149.71;27.74
53916;BME280;39827;49.652;18.770;2023-04-21T08:38:51;72765.09;;;-149.71;32.19
53916;BME280;39827;49.652;18.770;2023-04-21T08:41:17;72749.00;;;-149.71;30.32
53916;BME280;39827;49.652;18.770;2023-04-21T08:43:43;72690.78;;;-149.71;28.49
53916;BME280;39827;49.652;18.770;2023-04-21T08:46:10;72624.50;;;-149.71;27.50
53916;BME280;39827;49.652;18.770;2023-04-21T08:48:37;72546.16;;;-149.71;26.99
53916;BME280;39827;49.652;18.770;2023-04-21T08:51:04;72510.03;;;-149.71;27.02
53916;BME280;39827;49.652;18.770;2023-04-21T08:53:29;72471.88;;;-149.71;27.49
53916;BME280;39827;49.652;18.770;2023-04-21T08:55:55;72459.81;;;-149.71;26.08
53916;BME280;39827;49.652;18.770;2023-04-21T08:58:21;72409.63;;;-149.71;27.06
53916;BME280;39827;49.652;18.770;2023-04-21T09:00:49;72449.78;;;-149.71;28.37
53916;BME280;39827;49.652;18.770;2023-04-21T09:03:26;72401.59;;;-149.71;27.14
53916;BME280;39827;49.652;18.770;2023-04-21T09:05:59;72335.31;;;-149.71;25.04
53916;BME280;39827;49.652;18.770;2023-04-21T09:08:25;72495.97;;;-149.71;24.81
53916;BME280;39827;49.652;18.770;2023-04-21T09:10:53;72580.31;;;-149.71;26.57
53916;BME280;39827;49.652;18.770;2023-04-21T09:13:19;72618.47;;;-149.71;28.48
53916;BME280;39827;49.652;18.770;2023-04-21T09:15:47;72706.84;;;-149.71;28.78
53916;BME280;39827;49.652;18.770;2023-04-21T09:18:17;72833.38;;;-149.71;31.95
53916;BME280;39827;49.652;18.770;2023-04-21T09:20:44;72913.69;;;-149.71;34.69
53916;BME280;39827;49.652;18.770;2023-04-21T09:23:10;72915.72;;;-149.71;30.97
53916;BME280;39827;49.652;18.770;2023-04-21T09:25:41;72895.63;;;-149.71;29.73
53916;BME280;39827;49.652;18.770;2023-04-21T09:28:08;72871.53;;;-149.71;33.06
53916;BME280;39827;49.652;18.770;2023-04-21T09:30:35;72736.97;;;-149.71;32.92
53916;BME280;39827;49.652;18.770;2023-04-21T09:33:01;72698.81;;;-149.71;31.44
53916;BME280;39827;49.652;18.770;2023-04-21T09:35:28;72710.84;;;-149.71;32.37
53916;BME280;39827;49.652;18.770;2023-04-21T09:37:53;72700.81;;;-149.71;31.96
53916;BME280;39827;49.652;18.770;2023-04-21T09:40:19;72572.28;;;-149.71;30.90
53916;BME280;39827;49.652;18.770;2023-04-21T09:42:45;72411.63;;;-149.71;31.65
53916;BME280;39827;49.652;18.770;2023-04-21T09:45:11;72499.97;;;-149.71;30.10
53916;BME280;39827;49.652;18.770;2023-04-21T09:47:41;72572.28;;;-149.71;31.54
53916;BME280;39827;49.652;18.770;2023-04-21T09:50:10;72568.25;;;-149.71;31.24
53916;BME280;39827;49.652;18.770;2023-04-21T09:52:39;72640.56;;;-149.71;31.71
53916;BME280;39827;49.652;18.770;2023-04-21T09:55:11;72767.09;;;-149.71;33.35
53916;BME280;39827;49.652;18.770;2023-04-21T09:57:41;72767.09;;;-149.71;33.19
53916;BME280;39827;49.652;18.770;2023-04-21T10:00:10;72761.06;;;-149.71;34.31
53916;BME280;39827;49.652;18.770;2023-04-21T10:02:42;72757.03;;;-149.71;32.92
53916;BME280;39827;49.652;18.770;2023-04-21T10:05:09;72797.22;;;-149.71;33.53
53916;BME280;39827;49.652;18.770;2023-04-21T10:07:35;72827.34;;;-149.71;31.27
53916;BME280;39827;49.652;18.770;2023-04-21T10:10:00;72837.38;;;-149.71;32.36
53916;BME280;39827;49.652;18.770;2023-04-21T10:12:26;72686.75;;;-149.71;32.99
53916;BME280;39827;49.652;18.770;2023-04-21T10:14:53;72604.41;;;-149.71;31.28
53916;BME280;39827;49.652;18.770;2023-04-21T10:17:24;72592.38;;;-149.71;32.08
53916;BME280;39827;49.652;18.770;2023-04-21T10:19:54;72698.81;;;-149.71;31.56
53916;BME280;39827;49.652;18.770;2023-04-21T10:22:29;72757.03;;;-149.71;29.06
53916;BME280;39827;49.652;18.770;2023-04-21T10:24:56;72843.41;;;-149.71;31.11
53916;BME280;39827;49.652;18.770;2023-04-21T10:27:41;72803.25;;;-149.71;31.26
53916;BME280;39827;49.652;18.770;2023-04-21T10:30:20;72815.28;;;-149.71;31.65
53916;BME280;39827;49.652;18.770;2023-04-21T10:32:47;72682.75;;;-149.71;30.29
53916;BME280;39827;49.652;18.770;2023-04-21T10:35:21;72745.00;;;-149.71;29.17
53916;BME280;39827;49.652;18.770;2023-04-21T10:37:47;72869.53;;;-149.71;30.97
53916;BME280;39827;49.652;18.770;2023-04-21T10:40:34;72865.50;;;-149.71;30.81
53916;BME280;39827;49.652;18.770;2023-04-21T10:43:02;72833.38;;;-149.71;30.40
53916;BME280;39827;49.652;18.770;2023-04-21T10:45:29;72765.09;;;-149.71;31.00
53916;BME280;39827;49.652;18.770;2023-04-21T10:47:54;72803.25;;;-149.71;29.92
53916;BME280;39827;49.652;18.770;2023-04-21T10:52:51;72851.44;;;-149.71;31.09
53916;BME280;39827;49.652;18.770;2023-04-21T10:55:17;72893.63;;;-149.71;31.14
53916;BME280;39827;49.652;18.770;2023-04-21T10:57:45;72953.88;;;-149.71;29.50
53916;BME280;39827;49.652;18.770;2023-04-21T11:00:16;72933.78;;;-149.71;28.20
53916;BME280;39827;49.652;18.770;2023-04-21T11:02:42;72921.75;;;-149.71;29.51
53916;BME280;39827;49.652;18.770;2023-04-21T11:05:09;72939.81;;;-149.71;28.65
53916;BME280;39827;49.652;18.770;2023-04-21T11:07:34;72917.72;;;-149.71;29.98
53916;BME280;39827;49.652;18.770;2023-04-21T11:10:05;72873.53;;;-149.71;28.94
53916;BME280;39827;49.652;18.770;2023-04-21T11:12:33;72853.44;;;-149.71;28.67
53916;BME280;39827;49.652;18.770;2023-04-21T11:15:02;72743.00;;;-149.71;28.58
53916;BME280;39827;49.652;18.770;2023-04-21T11:17:28;72608.44;;;-149.71;27.95
53916;BME280;39827;49.652;18.770;2023-04-21T11:19:55;72516.06;;;-149.71;27.59
53916;BME280;39827;49.652;18.770;2023-04-21T11:22:25;72594.38;;;-149.71;26.91
53916;BME280;39827;49.652;18.770;2023-04-21T11:24:55;72682.75;;;-149.71;27.68
53916;BME280;39827;49.652;18.770;2023-04-21T11:27:21;72736.97;;;-149.71;27.73
53916;BME280;39827;49.652;18.770;2023-04-21T11:29:49;72801.22;;;-149.71;27.80
53916;BME280;39827;49.652;18.770;2023-04-21T11:32:16;72855.47;;;-149.71;27.59
53916;BME280;39827;49.652;18.770;2023-04-21T11:34:42;72847.44;;;-149.71;26.79
53916;BME280;39827;49.652;18.770;2023-04-21T11:37:12;72785.16;;;-149.71;26.86
53916;BME280;39827;49.652;18.770;2023-04-21T11:39:42;72640.56;;;-149.71;26.86
53916;BME280;39827;49.652;18.770;2023-04-21T11:42:08;72564.25;;;-149.71;25.76
53916;BME280;39827;49.652;18.770;2023-04-21T11:44:39;72590.34;;;-149.71;25.50
53916;BME280;39827;49.652;18.770;2023-04-21T11:47:31;72491.94;;;-149.71;25.66
53916;BME280;39827;49.652;18.770;2023-04-21T11:49:59;72514.03;;;-149.71;26.11
53916;BME280;39827;49.652;18.770;2023-04-21T11:52:29;72588.34;;;-149.71;25.83
53916;BME280;39827;49.652;18.770;2023-04-21T11:55:10;72634.53;;;-149.71;28.11
53916;BME280;39827;49.652;18.770;2023-04-21T11:57:36;72680.72;;;-149.71;26.89
53916;BME280;39827;49.652;18.770;2023-04-21T12:00:07;72690.78;;;-149.71;28.21
53916;BME280;39827;49.652;18.770;2023-04-21T12:02:33;72745.00;;;-149.71;28.34
53916;BME280;39827;49.652;18.770;2023-04-21T12:05:17;72805.25;;;-149.71;29.29
53916;BME280;39827;49.652;18.770;2023-04-21T12:07:44;72861.47;;;-149.71;28.44
53916;BME280;39827;49.652;18.770;2023-04-21T12:10:16;72897.63;;;-149.71;27.32
53916;BME280;39827;49.652;18.770;2023-04-21T12:12:42;72897.63;;;-149.71;27.80
53916;BME280;39827;49.652;18.770;2023-04-21T12:15:09;72967.94;;;-149.71;27.99
53916;BME280;39827;49.652;18.770;2023-04-21T12:17:48;72967.94;;;-149.71;28.94
53916;BME280;39827;49.652;18.770;2023-04-21T12:20:16;72977.97;;;-149.71;28.94
53916;BME280;39827;49.652;18.770;2023-04-21T12:22:42;73012.13;;;-149.71;28.31
53916;BME280;39827;49.652;18.770;2023-04-21T12:25:07;73038.22;;;-149.71;28.58
53916;BME280;39827;49.652;18.770;2023-04-21T12:27:33;73034.22;;;-149.71;29.47
53916;BME280;39827;49.652;18.770;2023-04-21T12:29:58;73034.22;;;-149.71;31.02